createdAt,value
2018-03-03T00:01:43.866Z,89.70
2018-03-03T00:04:11.426Z,90.00
2018-03-03T00:06:39.886Z,90.10
2018-03-03T00:09:07.447Z,90.50
2018-03-03T00:11:34.974Z,90.70
2018-03-03T00:14:02.543Z,90.70
2018-03-03T00:16:30.060Z,91.10
2018-03-03T00:18:57.605Z,90.80
2018-03-03T00:21:25.168Z,90.50
2018-03-03T00:23:52.695Z,90.30
2018-03-03T00:26:20.302Z,90.60
2018-03-03T00:28:47.825Z,90.60
2018-03-03T00:31:16.327Z,90.20
2018-03-03T00:33:44.633Z,90.20
2018-03-03T00:36:14.890Z,90.00
2018-03-03T00:38:42.433Z,90.00
2018-03-03T00:41:10.894Z,90.00
2018-03-03T00:43:38.451Z,89.50
2018-03-03T00:46:05.987Z,89.60
2018-03-03T00:48:34.519Z,90.00
2018-03-03T00:51:02.046Z,89.60
2018-03-03T00:53:30.367Z,90.00
2018-03-03T00:55:57.922Z,90.00
2018-03-03T00:58:25.477Z,89.70
2018-03-03T01:00:53.004Z,89.50
2018-03-03T01:03:20.565Z,89.50
2018-03-03T01:05:48.878Z,90.40
2018-03-03T01:08:21.730Z,90.30
2018-03-03T01:10:57.265Z,90.10
2018-03-03T01:13:25.787Z,90.10
2018-03-03T01:15:53.355Z,90.10
2018-03-03T01:18:20.886Z,90.00
2018-03-03T01:20:48.434Z,89.80
2018-03-03T01:23:16.051Z,89.90
2018-03-03T01:25:44.399Z,90.30
2018-03-03T01:28:11.922Z,90.30
2018-03-03T01:30:40.239Z,89.60
2018-03-03T01:33:07.777Z,89.50
2018-03-03T01:35:35.344Z,89.50
2018-03-03T01:38:03.202Z,90.00
2018-03-03T01:40:30.742Z,90.20
2018-03-03T01:42:58.299Z,90.20
2018-03-03T01:45:26.622Z,90.00
2018-03-03T01:47:54.278Z,90.00
2018-03-03T01:50:22.780Z,90.10
2018-03-03T01:52:50.335Z,89.70
2018-03-03T01:55:17.873Z,90.00
2018-03-03T01:57:45.411Z,90.00
2018-03-03T02:00:12.962Z,89.60
2018-03-03T02:02:40.494Z,89.30
2018-03-03T02:05:08.044Z,89.10
2018-03-03T02:07:36.796Z,89.70
2018-03-03T02:10:04.555Z,89.60
2018-03-03T02:12:32.079Z,89.60
2018-03-03T02:15:00.422Z,89.30
2018-03-03T02:17:27.978Z,89.30
2018-03-03T02:19:55.518Z,88.90
2018-03-03T02:22:25.008Z,89.00
2018-03-03T02:24:52.529Z,89.10
2018-03-03T02:27:20.087Z,89.40
2018-03-03T02:29:47.607Z,89.10
2018-03-03T02:32:15.135Z,88.70
2018-03-03T02:34:42.700Z,88.80
2018-03-03T02:37:10.218Z,89.60
2018-03-03T02:39:37.782Z,89.30
2018-03-03T02:42:05.306Z,89.20
2018-03-03T02:44:32.870Z,88.90
2018-03-03T02:47:00.398Z,88.40
2018-03-03T02:49:27.922Z,88.30
2018-03-03T02:51:55.477Z,87.80
2018-03-03T02:54:23.779Z,88.10
2018-03-03T02:56:51.346Z,88.10
2018-03-03T02:59:18.881Z,89.30
2018-03-03T03:01:46.456Z,88.80
2018-03-03T03:04:13.989Z,88.20
2018-03-03T03:06:41.545Z,88.20
2018-03-03T03:09:09.070Z,87.50
2018-03-03T03:11:36.610Z,87.50
2018-03-03T03:14:04.187Z,87.90
2018-03-03T03:16:32.720Z,87.20
2018-03-03T03:19:00.286Z,87.10
2018-03-03T03:21:27.813Z,86.90
2018-03-03T03:23:55.371Z,87.10
2018-03-03T03:26:22.891Z,87.30
2018-03-03T03:28:50.421Z,87.50
2018-03-03T03:31:18.014Z,86.70
2018-03-03T03:33:45.557Z,87.10
2018-03-03T03:36:13.132Z,87.10
2018-03-03T03:38:40.670Z,87.10
2018-03-03T03:41:08.230Z,87.30
2018-03-03T03:43:35.755Z,89.00
2018-03-03T03:46:04.057Z,88.30
2018-03-03T03:48:31.619Z,88.30
2018-03-03T03:50:59.156Z,88.00
2018-03-03T03:53:27.482Z,88.60
2018-03-03T03:55:55.972Z,88.60
2018-03-03T03:58:23.542Z,87.80
2018-03-03T04:00:51.066Z,87.70
2018-03-03T04:03:18.618Z,87.60
2018-03-03T04:05:46.168Z,87.00
2018-03-03T04:08:13.698Z,86.80
2018-03-03T04:10:42.027Z,88.40
2018-03-03T04:13:09.559Z,88.50
2018-03-03T04:15:37.114Z,88.60
2018-03-03T04:18:04.669Z,87.80
2018-03-03T04:20:33.008Z,87.70
2018-03-03T04:23:00.550Z,87.60
2018-03-03T04:25:28.078Z,88.20
2018-03-03T04:27:55.639Z,88.20
2018-03-03T04:30:24.151Z,88.60
2018-03-03T04:32:51.739Z,88.50
2018-03-03T04:35:19.276Z,87.80
2018-03-03T04:37:46.844Z,86.70
2018-03-03T04:40:14.378Z,86.60
2018-03-03T04:42:41.931Z,87.50
2018-03-03T04:45:09.463Z,87.50
2018-03-03T04:47:37.027Z,87.30
2018-03-03T04:50:04.580Z,86.50
2018-03-03T04:52:32.126Z,86.20
2018-03-03T04:55:00.447Z,85.90
2018-03-03T04:57:28.002Z,85.80
2018-03-03T04:59:57.060Z,85.60
2018-03-03T05:02:40.447Z,85.30
2018-03-03T05:05:08.900Z,85.20
2018-03-03T05:07:39.063Z,85.50
2018-03-03T05:10:06.617Z,85.90
2018-03-03T05:12:37.990Z,86.10
2018-03-03T05:18:07.314Z,86.50
2018-03-03T05:20:40.450Z,86.50
2018-03-03T05:23:13.625Z,87.50
2018-03-03T05:25:46.891Z,87.20
2018-03-03T05:28:20.091Z,87.40
2018-03-03T05:30:53.390Z,86.60
2018-03-03T05:33:26.680Z,86.80
2018-03-03T05:35:59.902Z,87.50
2018-03-03T05:38:33.107Z,87.30
2018-03-03T05:44:02.600Z,86.40
2018-03-03T05:49:35.631Z,87.60
2018-03-03T05:52:09.775Z,88.10
2018-03-03T05:54:43.059Z,88.80
2018-03-03T06:00:22.570Z,89.10
2018-03-03T06:02:55.821Z,90.40
2018-03-03T06:05:29.779Z,90.00
2018-03-03T06:10:58.336Z,90.60
2018-03-03T06:13:25.903Z,90.80
2018-03-03T06:15:53.430Z,90.20
2018-03-03T06:18:21.966Z,90.20
2018-03-03T06:20:49.532Z,90.30
2018-03-03T06:23:17.064Z,90.40
2018-03-03T06:25:44.627Z,91.30
2018-03-03T06:28:12.935Z,91.80
2018-03-03T06:30:40.533Z,91.80
2018-03-03T06:33:09.102Z,91.90
2018-03-03T06:35:36.704Z,92.50
2018-03-03T06:38:05.218Z,92.60
2018-03-03T06:40:32.750Z,92.10
2018-03-03T06:43:00.352Z,92.30
2018-03-03T06:45:27.908Z,92.10
2018-03-03T06:47:55.473Z,91.40
2018-03-03T06:50:23.002Z,91.20
2018-03-03T06:52:50.543Z,92.00
2018-03-03T06:55:20.094Z,91.40
2018-03-03T06:57:47.654Z,91.80
2018-03-03T07:00:15.219Z,91.30
2018-03-03T07:02:42.770Z,91.30
2018-03-03T07:05:10.363Z,90.90
2018-03-03T07:07:37.899Z,91.10
2018-03-03T07:10:06.680Z,91.70
2018-03-03T07:12:34.224Z,91.70
2018-03-03T07:15:01.804Z,91.00
2018-03-03T07:17:29.470Z,92.20
2018-03-03T07:19:57.111Z,91.80
2018-03-03T07:22:25.716Z,90.90
2018-03-03T07:24:53.773Z,90.60
2018-03-03T07:27:21.327Z,91.50
2018-03-03T07:29:48.901Z,91.00
2018-03-03T07:32:18.852Z,90.40
2018-03-03T07:34:47.147Z,90.90
2018-03-03T07:37:15.846Z,90.90
2018-03-03T07:39:43.387Z,90.40
2018-03-03T07:42:10.942Z,88.90
2018-03-03T07:44:38.473Z,89.20
2018-03-03T07:47:05.998Z,88.60
2018-03-03T07:49:33.570Z,90.30
2018-03-03T07:52:01.099Z,90.20
2018-03-03T07:54:28.659Z,89.10
2018-03-03T07:57:15.048Z,89.00
2018-03-03T07:59:42.618Z,89.60
2018-03-03T08:02:10.147Z,90.30
2018-03-03T08:04:37.725Z,90.30
2018-03-03T08:07:05.270Z,89.50
2018-03-03T08:09:32.916Z,89.70
2018-03-03T08:12:00.524Z,88.10
2018-03-03T08:14:28.056Z,86.80
2018-03-03T08:16:56.605Z,89.60
2018-03-03T08:19:24.913Z,86.30
2018-03-03T08:21:53.888Z,86.30
2018-03-03T08:24:22.195Z,86.30
2018-03-03T08:26:50.320Z,86.30
2018-03-03T08:29:17.907Z,86.60
2018-03-03T08:31:46.363Z,87.30
2018-03-03T08:34:15.906Z,87.20
2018-03-03T08:36:43.431Z,85.60
2018-03-03T08:39:10.989Z,86.90
2018-03-03T08:41:39.538Z,88.40
2018-03-03T08:44:07.086Z,89.10
2018-03-03T08:46:34.623Z,86.50
2018-03-03T08:49:03.102Z,87.60
2018-03-03T08:51:30.692Z,85.00
2018-03-03T08:53:58.212Z,84.00
2018-03-03T08:56:25.787Z,83.60
2018-03-03T08:58:53.321Z,82.70
2018-03-03T09:01:21.839Z,82.30
2018-03-03T09:03:49.368Z,82.00
2018-03-03T09:06:17.724Z,83.10
2018-03-03T09:08:46.020Z,82.30
2018-03-03T09:11:13.543Z,82.20
2018-03-03T09:13:41.101Z,81.10
2018-03-03T09:16:09.414Z,79.70
2018-03-03T09:18:36.971Z,79.60
2018-03-03T09:21:06.254Z,84.20
2018-03-03T09:23:33.827Z,84.20
2018-03-03T09:26:01.357Z,85.00
2018-03-03T09:28:28.910Z,83.70
2018-03-03T09:30:56.448Z,85.50
2018-03-03T09:33:23.982Z,84.60
2018-03-03T09:35:51.526Z,81.40
2018-03-03T09:38:19.061Z,83.00
2018-03-03T09:40:46.610Z,85.50
2018-03-03T09:43:14.139Z,86.80
2018-03-03T09:45:41.726Z,86.40
2018-03-03T09:48:10.281Z,84.70
2018-03-03T09:50:37.848Z,84.00
2018-03-03T09:53:05.399Z,85.60
2018-03-03T09:55:32.929Z,87.30
2018-03-03T09:58:01.459Z,87.30
2018-03-03T10:00:28.999Z,90.30
2018-03-03T10:02:56.581Z,90.00
2018-03-03T10:05:24.114Z,89.80
2018-03-03T10:07:51.666Z,90.20
2018-03-03T10:10:19.225Z,88.70
2018-03-03T10:12:46.788Z,87.20
2018-03-03T10:15:14.323Z,87.70
2018-03-03T10:17:41.901Z,87.80
2018-03-03T10:20:09.470Z,87.60
2018-03-03T10:22:36.994Z,86.90
2018-03-03T10:25:04.545Z,90.00
2018-03-03T10:27:32.104Z,88.70
2018-03-03T10:30:00.422Z,90.20
2018-03-03T10:32:27.979Z,90.20
2018-03-03T10:34:55.539Z,88.90
2018-03-03T10:37:23.070Z,84.80
2018-03-03T10:39:50.641Z,86.10
2018-03-03T10:42:18.398Z,87.00
2018-03-03T10:44:45.934Z,86.00
2018-03-03T10:47:16.290Z,87.30
2018-03-03T10:49:43.828Z,87.30
2018-03-03T10:52:13.121Z,85.50
2018-03-03T10:54:40.663Z,85.50
2018-03-03T10:57:08.214Z,84.90
2018-03-03T10:59:35.747Z,84.20
2018-03-03T11:02:03.369Z,85.70
2018-03-03T11:04:30.944Z,83.40
2018-03-03T11:07:00.462Z,84.60
2018-03-03T11:09:27.995Z,84.10
2018-03-03T11:11:55.535Z,84.50
2018-03-03T11:14:23.090Z,86.40
2018-03-03T11:16:51.390Z,88.60
2018-03-03T11:19:18.949Z,88.60
2018-03-03T11:21:46.531Z,85.70
2018-03-03T11:24:14.105Z,86.90
2018-03-03T11:26:41.636Z,85.00
2018-03-03T11:29:09.201Z,85.40
2018-03-03T11:31:36.802Z,85.30
2018-03-03T11:34:04.430Z,86.30
2018-03-03T11:36:32.003Z,86.80
2018-03-03T11:38:59.527Z,88.50
2018-03-03T11:41:28.167Z,86.20
2018-03-03T11:43:56.745Z,83.60
2018-03-03T11:46:26.267Z,85.20
2018-03-03T11:48:53.795Z,88.00
2018-03-03T11:51:21.327Z,87.70
2018-03-03T11:53:48.898Z,89.30
2018-03-03T11:56:16.430Z,90.30
2018-03-03T11:58:43.982Z,90.00
2018-03-03T12:01:11.528Z,89.70
2018-03-03T12:03:39.087Z,89.90
2018-03-03T12:06:09.106Z,89.40
2018-03-03T12:08:36.677Z,89.30
2018-03-03T12:11:04.246Z,89.10
2018-03-03T12:13:31.781Z,88.10
2018-03-03T12:16:01.066Z,86.10
2018-03-03T12:18:29.370Z,85.30
2018-03-03T12:20:56.942Z,85.20
2018-03-03T12:23:24.491Z,86.80
2018-03-03T12:25:52.055Z,83.20
2018-03-03T12:28:20.559Z,84.20
2018-03-03T12:30:48.123Z,81.90
2018-03-03T12:33:15.678Z,83.10
2018-03-03T12:35:44.195Z,82.40
2018-03-03T12:38:12.524Z,86.60
2018-03-03T12:40:40.047Z,86.60
2018-03-03T12:43:08.359Z,85.40
2018-03-03T12:45:36.022Z,83.40
2018-03-03T12:48:03.587Z,80.80
2018-03-03T12:50:31.110Z,80.90
2018-03-03T12:52:59.430Z,79.50
2018-03-03T12:55:27.282Z,79.60
2018-03-03T12:57:55.449Z,79.40
2018-03-03T13:00:23.061Z,78.70
2018-03-03T13:02:50.593Z,78.70
2018-03-03T13:05:18.151Z,77.70
2018-03-03T13:07:45.671Z,78.90
2018-03-03T13:10:14.572Z,78.90
2018-03-03T13:12:42.638Z,78.90
2018-03-03T13:15:11.917Z,79.70
2018-03-03T13:17:39.914Z,78.70
2018-03-03T13:20:08.859Z,78.80
2018-03-03T13:22:38.358Z,78.30
2018-03-03T13:25:06.541Z,79.10
2018-03-03T13:27:34.133Z,79.60
2018-03-03T13:30:01.673Z,81.90
2018-03-03T13:32:30.005Z,83.20
2018-03-03T13:34:57.532Z,83.20
2018-03-03T13:37:27.065Z,84.20
2018-03-03T13:39:54.695Z,83.90
2018-03-03T13:42:22.223Z,82.80
2018-03-03T13:44:50.558Z,83.20
2018-03-03T13:47:18.094Z,83.30
2018-03-03T13:49:45.646Z,83.00
2018-03-03T13:52:13.178Z,82.60
2018-03-03T13:54:40.726Z,81.50
2018-03-03T13:57:08.258Z,80.30
2018-03-03T13:59:35.787Z,79.70
2018-03-03T14:02:05.291Z,80.90
2018-03-03T14:04:33.786Z,80.40
2018-03-03T14:07:01.411Z,81.20
2018-03-03T14:09:28.948Z,81.10
2018-03-03T14:11:56.498Z,81.80
2018-03-03T14:14:24.031Z,83.00
2018-03-03T14:16:51.586Z,83.20
2018-03-03T14:19:19.126Z,82.20
2018-03-03T14:21:47.628Z,80.60
2018-03-03T14:24:17.139Z,80.70
2018-03-03T14:26:44.668Z,80.80
2018-03-03T14:29:12.248Z,80.00
2018-03-03T14:31:39.762Z,79.40
2018-03-03T14:34:08.025Z,80.40
2018-03-03T14:36:35.549Z,78.70
2018-03-03T14:39:05.144Z,78.70
2018-03-03T14:41:32.679Z,78.70
2018-03-03T14:44:00.257Z,78.90
2018-03-03T14:46:27.786Z,78.70
2018-03-03T14:48:56.168Z,77.80
2018-03-03T14:51:24.494Z,78.00
2018-03-03T14:53:52.017Z,78.00
2018-03-03T14:56:19.577Z,77.80
2018-03-03T14:58:47.782Z,77.20
2018-03-03T15:01:15.347Z,79.50
2018-03-03T15:03:42.872Z,78.60
2018-03-03T15:06:11.340Z,79.60
2018-03-03T15:08:38.858Z,79.50
2018-03-03T15:11:06.385Z,77.90
2018-03-03T15:13:36.661Z,77.70
2018-03-03T15:16:04.954Z,79.00
2018-03-03T15:18:32.593Z,84.50
2018-03-03T15:21:00.145Z,85.50
2018-03-03T15:23:27.734Z,83.50
2018-03-03T15:25:55.288Z,83.20
2018-03-03T15:28:22.845Z,83.80
2018-03-03T15:30:50.790Z,83.80
2018-03-03T15:33:18.368Z,84.00
2018-03-03T15:35:46.664Z,83.20
2018-03-03T15:38:14.200Z,83.20
2018-03-03T15:40:41.763Z,82.50
2018-03-03T15:43:09.297Z,84.40
2018-03-03T15:45:36.867Z,87.70
2018-03-03T15:48:04.391Z,87.00
2018-03-03T15:50:31.939Z,85.50
2018-03-03T15:52:59.489Z,87.80
2018-03-03T15:55:27.052Z,87.00
2018-03-03T15:57:55.557Z,86.40
2018-03-03T16:00:23.083Z,86.10
2018-03-03T16:02:50.642Z,85.30
2018-03-03T16:05:18.177Z,89.20
2018-03-03T16:07:46.490Z,87.00
2018-03-03T16:10:14.043Z,87.00
2018-03-03T16:12:41.651Z,87.30
2018-03-03T16:15:09.309Z,86.40
2018-03-03T16:17:36.875Z,87.00
2018-03-03T16:20:04.530Z,87.00
2018-03-03T16:22:32.062Z,87.60
2018-03-03T16:24:59.638Z,87.40
2018-03-03T16:27:27.170Z,87.70
2018-03-03T16:29:54.722Z,87.70
2018-03-03T16:32:22.248Z,87.70
2018-03-03T16:34:50.571Z,88.40
2018-03-03T16:37:18.109Z,88.40
2018-03-03T16:39:45.668Z,89.10
2018-03-03T16:42:13.212Z,89.00
2018-03-03T16:44:40.733Z,88.40
2018-03-03T16:47:08.286Z,88.50
2018-03-03T16:49:35.819Z,89.20
2018-03-03T16:52:03.398Z,89.20
2018-03-03T16:54:30.930Z,90.00
2018-03-03T16:56:58.586Z,90.20
2018-03-03T16:59:26.123Z,90.20
2018-03-03T17:01:53.682Z,89.70
2018-03-03T17:04:21.216Z,90.10
2018-03-03T17:06:49.514Z,90.00
2018-03-03T17:09:17.062Z,90.00
2018-03-03T17:11:44.588Z,90.00
2018-03-03T17:14:12.162Z,89.80
2018-03-03T17:16:39.703Z,90.10
2018-03-03T17:19:09.198Z,88.70
2018-03-03T17:21:36.735Z,90.00
2018-03-03T17:24:04.285Z,90.10
2018-03-03T17:26:32.040Z,90.00
2018-03-03T17:28:59.590Z,90.00
2018-03-03T17:31:27.911Z,89.70
2018-03-03T17:33:55.432Z,89.70
2018-03-03T17:36:23.019Z,90.10
2018-03-03T17:38:50.556Z,90.10
2018-03-03T17:41:18.141Z,90.00
2018-03-03T17:43:45.703Z,90.20
2018-03-03T17:46:13.256Z,90.20
2018-03-03T17:48:40.798Z,90.90
2018-03-03T17:51:08.318Z,91.10
2018-03-03T17:53:35.870Z,90.30
2018-03-03T17:56:03.399Z,91.20
2018-03-03T17:58:30.960Z,91.00
2018-03-03T18:00:59.446Z,90.70
2018-03-03T18:03:28.942Z,91.00
2018-03-03T18:05:56.473Z,90.60
2018-03-03T18:08:24.023Z,90.70
2018-03-03T18:10:51.566Z,91.40
2018-03-03T18:13:19.151Z,90.40
2018-03-03T18:15:46.683Z,90.60
2018-03-03T18:18:19.860Z,90.50
2018-03-03T18:20:50.327Z,90.50
2018-03-03T18:23:23.298Z,90.30
2018-03-03T18:25:51.624Z,91.60
2018-03-03T18:28:19.146Z,91.60
2018-03-03T18:30:46.707Z,91.20
2018-03-03T18:33:14.266Z,91.10
2018-03-03T18:35:41.878Z,91.80
2018-03-03T18:38:09.404Z,91.70
2018-03-03T18:40:36.934Z,91.90
2018-03-03T18:43:05.562Z,90.90
2018-03-03T18:45:33.101Z,91.50
2018-03-03T18:48:00.660Z,91.20
2018-03-03T18:50:28.195Z,92.10
2018-03-03T18:52:55.775Z,92.50
2018-03-03T18:55:23.359Z,92.30
2018-03-03T18:57:51.719Z,91.50
2018-03-03T19:00:19.934Z,91.50
2018-03-03T19:02:47.567Z,91.50
2018-03-03T19:05:15.113Z,91.10
2018-03-03T19:07:42.647Z,91.10
2018-03-03T19:10:11.182Z,91.60
2018-03-03T19:12:38.720Z,91.10
2018-03-03T19:15:06.343Z,90.70
2018-03-03T19:17:34.888Z,91.20
2018-03-03T19:20:03.329Z,91.10
2018-03-03T19:22:31.824Z,90.80
2018-03-03T19:24:59.384Z,90.60
2018-03-03T19:27:26.926Z,90.40
2018-03-03T19:29:54.457Z,90.30
2018-03-03T19:32:22.028Z,91.00
2018-03-03T19:34:49.556Z,91.10
2018-03-03T19:37:17.134Z,91.20
2018-03-03T19:39:44.662Z,91.10
2018-03-03T19:42:12.354Z,90.90
2018-03-03T19:44:40.683Z,90.60
2018-03-03T19:47:08.231Z,90.60
2018-03-03T19:49:35.857Z,90.80
2018-03-03T19:52:03.386Z,90.90
2018-03-03T19:54:30.954Z,90.20
2018-03-03T19:56:58.484Z,91.00
2018-03-03T19:59:26.041Z,91.60
2018-03-03T20:01:53.711Z,92.20
2018-03-03T20:04:21.548Z,91.70
2018-03-03T20:06:49.083Z,91.30
2018-03-03T20:09:18.633Z,91.50
2018-03-03T20:11:46.199Z,91.80
2018-03-03T20:14:14.544Z,92.40
2018-03-03T20:16:42.118Z,92.40
2018-03-03T20:19:10.613Z,92.30
2018-03-03T20:21:38.179Z,91.90
2018-03-03T20:24:06.000Z,91.50
2018-03-03T20:26:34.742Z,91.60
2018-03-03T20:29:02.357Z,91.60
2018-03-03T20:31:30.929Z,91.60
2018-03-03T20:33:58.592Z,91.80
2018-03-03T20:36:26.145Z,91.90
2018-03-03T20:38:53.703Z,91.20
2018-03-03T20:41:21.409Z,91.10
2018-03-03T20:43:48.981Z,91.20
2018-03-03T20:46:16.549Z,91.60
2018-03-03T20:48:46.057Z,91.20
2018-03-03T20:51:13.594Z,90.90
2018-03-03T20:53:41.156Z,90.30
2018-03-03T20:56:08.690Z,90.40
2018-03-03T20:58:36.238Z,90.70
2018-03-03T21:01:03.792Z,90.90
2018-03-03T21:03:31.319Z,90.90
2018-03-03T21:05:58.903Z,91.20
2018-03-03T21:08:26.426Z,91.20
2018-03-03T21:10:53.982Z,91.10
2018-03-03T21:13:21.512Z,91.90
2018-03-03T21:15:49.088Z,92.00
2018-03-03T21:18:17.570Z,92.00
2018-03-03T21:20:45.107Z,91.70
2018-03-03T21:23:12.655Z,92.10
2018-03-03T21:25:40.178Z,92.30
2018-03-03T21:28:08.497Z,91.90
2018-03-03T21:30:36.028Z,91.90
2018-03-03T21:33:04.559Z,92.00
2018-03-03T21:35:32.088Z,91.70
2018-03-03T21:37:59.647Z,91.50
2018-03-03T21:40:27.172Z,91.50
2018-03-03T21:42:54.700Z,91.50
2018-03-03T21:45:24.185Z,91.60
2018-03-03T21:47:51.712Z,91.20
2018-03-03T21:50:19.272Z,91.00
2018-03-03T21:52:47.763Z,91.40
2018-03-03T21:55:17.265Z,91.10
2018-03-03T21:57:44.805Z,91.20
2018-03-03T22:00:14.290Z,91.00
2018-03-03T22:02:41.843Z,91.00
2018-03-03T22:05:09.452Z,91.10
2018-03-03T22:07:36.976Z,90.90
2018-03-03T22:10:04.494Z,91.30
2018-03-03T22:12:32.047Z,91.80
2018-03-03T22:15:00.575Z,91.60
2018-03-03T22:17:28.383Z,91.00
2018-03-03T22:19:56.056Z,91.50
2018-03-03T22:22:23.642Z,91.20
2018-03-03T22:24:51.181Z,91.10
2018-03-03T22:27:18.782Z,91.20
2018-03-03T22:29:47.253Z,91.40
2018-03-03T22:32:14.798Z,91.70
2018-03-03T22:34:42.347Z,92.20
2018-03-03T22:37:09.887Z,93.20
2018-03-03T22:39:38.395Z,92.60
2018-03-03T22:42:05.918Z,91.80
2018-03-03T22:44:33.473Z,91.50
2018-03-03T22:47:00.990Z,91.70
2018-03-03T22:49:29.541Z,91.40
2018-03-03T22:51:57.085Z,91.40
2018-03-03T22:54:24.624Z,91.40
2018-03-03T22:56:52.202Z,90.80
2018-03-03T22:59:20.683Z,91.10
2018-03-03T23:01:48.237Z,92.00
2018-03-03T23:04:15.762Z,92.00
2018-03-03T23:06:43.310Z,91.80
2018-03-03T23:09:10.837Z,92.40
2018-03-03T23:11:40.327Z,93.50
2018-03-03T23:14:07.888Z,92.70
2018-03-03T23:16:36.427Z,92.50
2018-03-03T23:19:03.981Z,92.00
2018-03-03T23:21:31.494Z,91.40
2018-03-03T23:24:01.007Z,91.20
2018-03-03T23:26:28.538Z,91.30
2018-03-03T23:28:56.126Z,91.50
2018-03-03T23:31:24.431Z,91.40
2018-03-03T23:33:51.987Z,91.40
2018-03-03T23:36:20.277Z,91.30
2018-03-03T23:38:47.840Z,91.30
2018-03-03T23:41:15.383Z,91.80
2018-03-03T23:43:42.923Z,92.00
2018-03-03T23:46:10.483Z,91.80
2018-03-03T23:48:38.057Z,91.70
2018-03-03T23:51:06.434Z,91.50
2018-03-03T23:53:33.957Z,91.50
2018-03-03T23:56:01.502Z,91.70
2018-03-03T23:58:29.027Z,91.60
